sensor_id;sensor_type;location;lat;lon;timestamp;temperature;humidity
26505;DHT22;19493;48.042;7.584;2023-12-29T00:01:31;10.00;99.90
26505;DHT22;19493;48.042;7.584;2023-12-29T00:03:57;10.00;99.90
26505;DHT22;19493;48.042;7.584;2023-12-29T00:06:23;10.10;99.90
26505;DHT22;19493;48.042;7.584;2023-12-29T00:08:48;10.00;99.90
26505;DHT22;19493;48.042;7.584;2023-12-29T00:11:18;10.10;99.90
26505;DHT22;19493;48.042;7.584;2023-12-29T00:13:44;10.10;99.90
26505;DHT22;19493;48.042;7.584;2023-12-29T00:16:10;10.10;99.90
26505;DHT22;19493;48.042;7.584;2023-12-29T00:18:37;10.10;99.90
26505;DHT22;19493;48.042;7.584;2023-12-29T00:21:03;10.00;99.90
26505;DHT22;19493;48.042;7.584;2023-12-29T00:23:28;10.00;99.90
26505;DHT22;19493;48.042;7.584;2023-12-29T00:25:54;10.00;99.90
26505;DHT22;19493;48.042;7.584;2023-12-29T00:28:19;10.00;99.90
26505;DHT22;19493;48.042;7.584;2023-12-29T00:30:45;10.00;99.90
26505;DHT22;19493;48.042;7.584;2023-12-29T00:33:10;9.90;99.90
26505;DHT22;19493;48.042;7.584;2023-12-29T00:35:39;9.90;99.90
26505;DHT22;19493;48.042;7.584;2023-12-29T00:38:05;9.90;99.90
26505;DHT22;19493;48.042;7.584;2023-12-29T00:40:32;9.90;99.90
26505;DHT22;19493;48.042;7.584;2023-12-29T00:42:58;9.90;99.90
26505;DHT22;19493;48.042;7.584;2023-12-29T00:45:23;9.80;99.90
26505;DHT22;19493;48.042;7.584;2023-12-29T00:47:49;9.80;99.90
26505;DHT22;19493;48.042;7.584;2023-12-29T00:50:16;9.80;99.90
26505;DHT22;19493;48.042;7.584;2023-12-29T00:52:42;9.80;99.90
26505;DHT22;19493;48.042;7.584;2023-12-29T00:55:07;9.70;99.90
26505;DHT22;19493;48.042;7.584;2023-12-29T00:57:33;9.60;99.90
26505;DHT22;19493;48.042;7.584;2023-12-29T01:00:00;9.60;99.90
26505;DHT22;19493;48.042;7.584;2023-12-29T01:02:25;9.60;99.90
26505;DHT22;19493;48.042;7.584;2023-12-29T01:04:51;9.60;99.90
26505;DHT22;19493;48.042;7.584;2023-12-29T01:07:16;9.50;99.90
26505;DHT22;19493;48.042;7.584;2023-12-29T01:09:42;9.50;99.90
26505;DHT22;19493;48.042;7.584;2023-12-29T01:12:08;9.50;99.90
26505;DHT22;19493;48.042;7.584;2023-12-29T01:14:34;9.50;99.90
26505;DHT22;19493;48.042;7.584;2023-12-29T01:16:59;9.40;99.90
26505;DHT22;19493;48.042;7.584;2023-12-29T01:19:25;9.40;99.90
26505;DHT22;19493;48.042;7.584;2023-12-29T01:21:50;9.40;99.90
26505;DHT22;19493;48.042;7.584;2023-12-29T01:24:16;9.40;99.90
26505;DHT22;19493;48.042;7.584;2023-12-29T01:26:41;9.40;99.90
26505;DHT22;19493;48.042;7.584;2023-12-29T01:29:07;9.40;99.90
26505;DHT22;19493;48.042;7.584;2023-12-29T01:31:32;9.40;99.90
26505;DHT22;19493;48.042;7.584;2023-12-29T01:33:58;9.40;99.90
26505;DHT22;19493;48.042;7.584;2023-12-29T01:36:24;9.40;99.90
26505;DHT22;19493;48.042;7.584;2023-12-29T01:38:49;9.50;99.90
26505;DHT22;19493;48.042;7.584;2023-12-29T01:41:15;9.40;99.90
26505;DHT22;19493;48.042;7.584;2023-12-29T01:46:23;9.40;99.90
26505;DHT22;19493;48.042;7.584;2023-12-29T01:48:49;9.30;99.90
26505;DHT22;19493;48.042;7.584;2023-12-29T01:51:15;9.40;99.90
26505;DHT22;19493;48.042;7.584;2023-12-29T01:53:42;9.30;99.90
26505;DHT22;19493;48.042;7.584;2023-12-29T01:56:09;9.30;99.90
26505;DHT22;19493;48.042;7.584;2023-12-29T01:58:35;9.30;99.90
26505;DHT22;19493;48.042;7.584;2023-12-29T02:01:02;9.30;99.90
26505;DHT22;19493;48.042;7.584;2023-12-29T02:03:28;9.30;99.90
26505;DHT22;19493;48.042;7.584;2023-12-29T02:05:55;9.20;99.90
26505;DHT22;19493;48.042;7.584;2023-12-29T02:08:24;9.20;99.90
26505;DHT22;19493;48.042;7.584;2023-12-29T02:10:49;9.20;99.90
26505;DHT22;19493;48.042;7.584;2023-12-29T02:13:15;9.30;99.90
26505;DHT22;19493;48.042;7.584;2023-12-29T02:15:41;9.30;99.90
26505;DHT22;19493;48.042;7.584;2023-12-29T02:18:10;9.30;99.90
26505;DHT22;19493;48.042;7.584;2023-12-29T02:20:40;9.30;99.90
26505;DHT22;19493;48.042;7.584;2023-12-29T02:23:06;9.30;99.90
26505;DHT22;19493;48.042;7.584;2023-12-29T02:25:32;9.40;99.90
26505;DHT22;19493;48.042;7.584;2023-12-29T02:28:01;9.40;99.90
26505;DHT22;19493;48.042;7.584;2023-12-29T02:30:43;9.40;99.90
26505;DHT22;19493;48.042;7.584;2023-12-29T02:33:14;9.50;99.90
26505;DHT22;19493;48.042;7.584;2023-12-29T02:35:43;9.50;99.90
26505;DHT22;19493;48.042;7.584;2023-12-29T02:38:11;9.60;99.90
26505;DHT22;19493;48.042;7.584;2023-12-29T02:40:38;9.60;99.90
26505;DHT22;19493;48.042;7.584;2023-12-29T02:43:03;9.60;99.90
26505;DHT22;19493;48.042;7.584;2023-12-29T02:45:29;9.60;99.90
26505;DHT22;19493;48.042;7.584;2023-12-29T02:47:55;9.60;99.90
26505;DHT22;19493;48.042;7.584;2023-12-29T02:50:20;9.60;99.90
26505;DHT22;19493;48.042;7.584;2023-12-29T02:52:46;9.70;99.90
26505;DHT22;19493;48.042;7.584;2023-12-29T02:55:11;9.70;99.90
26505;DHT22;19493;48.042;7.584;2023-12-29T02:57:38;9.70;99.90
26505;DHT22;19493;48.042;7.584;2023-12-29T03:00:05;9.70;99.90
26505;DHT22;19493;48.042;7.584;2023-12-29T03:02:31;9.60;99.90
26505;DHT22;19493;48.042;7.584;2023-12-29T03:04:56;9.60;99.90
26505;DHT22;19493;48.042;7.584;2023-12-29T03:07:22;9.50;99.90
26505;DHT22;19493;48.042;7.584;2023-12-29T03:09:47;9.40;99.90
26505;DHT22;19493;48.042;7.584;2023-12-29T03:12:13;9.50;99.90
26505;DHT22;19493;48.042;7.584;2023-12-29T03:14:38;9.50;99.90
26505;DHT22;19493;48.042;7.584;2023-12-29T03:17:04;9.60;99.90
26505;DHT22;19493;48.042;7.584;2023-12-29T03:19:30;9.60;99.90
26505;DHT22;19493;48.042;7.584;2023-12-29T03:21:55;9.70;99.90
26505;DHT22;19493;48.042;7.584;2023-12-29T03:24:21;9.70;99.90
26505;DHT22;19493;48.042;7.584;2023-12-29T03:26:46;9.80;99.90
26505;DHT22;19493;48.042;7.584;2023-12-29T03:29:12;9.80;99.90
26505;DHT22;19493;48.042;7.584;2023-12-29T03:31:37;9.80;99.90
26505;DHT22;19493;48.042;7.584;2023-12-29T03:34:04;9.80;99.90
26505;DHT22;19493;48.042;7.584;2023-12-29T03:36:30;9.80;99.90
26505;DHT22;19493;48.042;7.584;2023-12-29T03:38:55;9.80;99.90
26505;DHT22;19493;48.042;7.584;2023-12-29T03:41:21;9.80;99.90
26505;DHT22;19493;48.042;7.584;2023-12-29T03:43:47;9.70;99.90
26505;DHT22;19493;48.042;7.584;2023-12-29T03:46:20;9.70;99.90
26505;DHT22;19493;48.042;7.584;2023-12-29T03:48:46;9.60;99.90
26505;DHT22;19493;48.042;7.584;2023-12-29T03:51:12;9.60;99.90
26505;DHT22;19493;48.042;7.584;2023-12-29T03:53:38;9.50;99.90
26505;DHT22;19493;48.042;7.584;2023-12-29T03:56:05;9.40;99.90
26505;DHT22;19493;48.042;7.584;2023-12-29T03:58:31;9.40;99.90
26505;DHT22;19493;48.042;7.584;2023-12-29T04:00:56;9.30;99.90
26505;DHT22;19493;48.042;7.584;2023-12-29T04:03:22;9.30;99.90
26505;DHT22;19493;48.042;7.584;2023-12-29T04:05:48;9.20;99.90
26505;DHT22;19493;48.042;7.584;2023-12-29T04:08:13;9.10;99.90
26505;DHT22;19493;48.042;7.584;2023-12-29T04:10:39;9.20;99.90
26505;DHT22;19493;48.042;7.584;2023-12-29T04:13:04;9.10;99.90
26505;DHT22;19493;48.042;7.584;2023-12-29T04:15:30;9.10;99.90
26505;DHT22;19493;48.042;7.584;2023-12-29T04:17:55;9.10;99.90
26505;DHT22;19493;48.042;7.584;2023-12-29T04:20:21;9.10;99.90
26505;DHT22;19493;48.042;7.584;2023-12-29T04:22:47;9.00;99.90
26505;DHT22;19493;48.042;7.584;2023-12-29T04:25:12;9.00;99.90
26505;DHT22;19493;48.042;7.584;2023-12-29T04:27:40;9.00;99.90
26505;DHT22;19493;48.042;7.584;2023-12-29T04:30:06;9.10;99.90
26505;DHT22;19493;48.042;7.584;2023-12-29T04:32:31;9.10;99.90
26505;DHT22;19493;48.042;7.584;2023-12-29T04:34:57;9.20;99.90
26505;DHT22;19493;48.042;7.584;2023-12-29T04:37:22;9.30;99.90
26505;DHT22;19493;48.042;7.584;2023-12-29T04:39:48;9.30;99.90
26505;DHT22;19493;48.042;7.584;2023-12-29T04:42:13;9.40;99.90
26505;DHT22;19493;48.042;7.584;2023-12-29T04:44:39;9.40;99.90
26505;DHT22;19493;48.042;7.584;2023-12-29T04:47:05;9.50;99.90
26505;DHT22;19493;48.042;7.584;2023-12-29T04:49:30;9.50;99.90
26505;DHT22;19493;48.042;7.584;2023-12-29T04:51:56;9.50;99.90
26505;DHT22;19493;48.042;7.584;2023-12-29T04:54:21;9.40;99.90
26505;DHT22;19493;48.042;7.584;2023-12-29T04:56:47;9.40;99.90
26505;DHT22;19493;48.042;7.584;2023-12-29T04:59:12;9.40;99.90
26505;DHT22;19493;48.042;7.584;2023-12-29T05:01:38;9.30;99.90
26505;DHT22;19493;48.042;7.584;2023-12-29T05:04:03;9.20;99.90
26505;DHT22;19493;48.042;7.584;2023-12-29T05:06:29;9.20;99.90
26505;DHT22;19493;48.042;7.584;2023-12-29T05:08:54;9.20;99.90
26505;DHT22;19493;48.042;7.584;2023-12-29T05:11:20;9.20;99.90
26505;DHT22;19493;48.042;7.584;2023-12-29T05:13:45;9.10;99.90
26505;DHT22;19493;48.042;7.584;2023-12-29T05:16:11;9.20;99.90
26505;DHT22;19493;48.042;7.584;2023-12-29T05:18:36;9.20;99.90
26505;DHT22;19493;48.042;7.584;2023-12-29T05:21:02;9.20;99.90
26505;DHT22;19493;48.042;7.584;2023-12-29T05:23:28;9.10;99.90
26505;DHT22;19493;48.042;7.584;2023-12-29T05:25:53;9.10;99.90
26505;DHT22;19493;48.042;7.584;2023-12-29T05:28:19;9.10;99.90
26505;DHT22;19493;48.042;7.584;2023-12-29T05:30:44;9.00;99.90
26505;DHT22;19493;48.042;7.584;2023-12-29T05:33:10;9.10;99.90
26505;DHT22;19493;48.042;7.584;2023-12-29T05:35:35;9.10;99.90
26505;DHT22;19493;48.042;7.584;2023-12-29T05:38:01;9.10;99.90
26505;DHT22;19493;48.042;7.584;2023-12-29T05:40:26;9.10;99.90
26505;DHT22;19493;48.042;7.584;2023-12-29T05:42:52;9.10;99.90
26505;DHT22;19493;48.042;7.584;2023-12-29T05:45:17;9.20;99.90
26505;DHT22;19493;48.042;7.584;2023-12-29T05:47:43;9.30;99.90
26505;DHT22;19493;48.042;7.584;2023-12-29T05:50:09;9.20;99.90
26505;DHT22;19493;48.042;7.584;2023-12-29T05:52:34;9.40;99.90
26505;DHT22;19493;48.042;7.584;2023-12-29T05:55:00;9.40;99.90
26505;DHT22;19493;48.042;7.584;2023-12-29T05:57:25;9.50;99.90
26505;DHT22;19493;48.042;7.584;2023-12-29T05:59:51;9.60;99.90
26505;DHT22;19493;48.042;7.584;2023-12-29T06:02:16;9.70;99.90
26505;DHT22;19493;48.042;7.584;2023-12-29T06:04:42;9.80;99.90
26505;DHT22;19493;48.042;7.584;2023-12-29T06:07:07;9.90;99.90
26505;DHT22;19493;48.042;7.584;2023-12-29T06:09:33;9.90;99.90
26505;DHT22;19493;48.042;7.584;2023-12-29T06:11:58;10.00;99.90
26505;DHT22;19493;48.042;7.584;2023-12-29T06:14:24;10.00;99.90
26505;DHT22;19493;48.042;7.584;2023-12-29T06:16:50;10.00;99.90
26505;DHT22;19493;48.042;7.584;2023-12-29T06:19:15;10.00;99.90
26505;DHT22;19493;48.042;7.584;2023-12-29T06:21:44;9.90;99.90
26505;DHT22;19493;48.042;7.584;2023-12-29T06:24:12;9.90;99.90
26505;DHT22;19493;48.042;7.584;2023-12-29T06:26:38;9.80;99.90
26505;DHT22;19493;48.042;7.584;2023-12-29T06:29:09;9.80;99.90
26505;DHT22;19493;48.042;7.584;2023-12-29T06:31:34;9.70;99.90
26505;DHT22;19493;48.042;7.584;2023-12-29T06:34:00;9.70;99.90
26505;DHT22;19493;48.042;7.584;2023-12-29T06:36:26;9.60;99.90
26505;DHT22;19493;48.042;7.584;2023-12-29T06:38:51;9.60;99.90
26505;DHT22;19493;48.042;7.584;2023-12-29T06:41:18;9.60;99.90
26505;DHT22;19493;48.042;7.584;2023-12-29T06:43:44;9.50;99.90
26505;DHT22;19493;48.042;7.584;2023-12-29T06:46:11;9.60;99.90
26505;DHT22;19493;48.042;7.584;2023-12-29T06:48:38;9.60;99.90
26505;DHT22;19493;48.042;7.584;2023-12-29T06:51:03;9.50;99.90
26505;DHT22;19493;48.042;7.584;2023-12-29T06:53:29;9.50;99.90
26505;DHT22;19493;48.042;7.584;2023-12-29T06:55:54;9.50;99.90
26505;DHT22;19493;48.042;7.584;2023-12-29T06:58:20;9.50;99.90
26505;DHT22;19493;48.042;7.584;2023-12-29T07:00:45;9.60;99.90
26505;DHT22;19493;48.042;7.584;2023-12-29T07:03:14;9.60;99.90
26505;DHT22;19493;48.042;7.584;2023-12-29T07:05:40;9.60;99.90
26505;DHT22;19493;48.042;7.584;2023-12-29T07:08:06;9.70;99.90
26505;DHT22;19493;48.042;7.584;2023-12-29T07:10:31;9.60;99.90
26505;DHT22;19493;48.042;7.584;2023-12-29T07:12:57;9.60;99.90
26505;DHT22;19493;48.042;7.584;2023-12-29T07:15:22;9.60;99.90
26505;DHT22;19493;48.042;7.584;2023-12-29T07:17:48;9.70;99.90
26505;DHT22;19493;48.042;7.584;2023-12-29T07:20:13;9.70;99.90
26505;DHT22;19493;48.042;7.584;2023-12-29T07:22:39;9.80;99.90
26505;DHT22;19493;48.042;7.584;2023-12-29T07:25:05;9.90;99.90
26505;DHT22;19493;48.042;7.584;2023-12-29T07:27:30;9.80;99.90
26505;DHT22;19493;48.042;7.584;2023-12-29T07:29:56;9.90;99.90
26505;DHT22;19493;48.042;7.584;2023-12-29T07:32:22;9.90;99.90
26505;DHT22;19493;48.042;7.584;2023-12-29T07:34:48;9.90;99.90
26505;DHT22;19493;48.042;7.584;2023-12-29T07:37:14;10.00;99.90
26505;DHT22;19493;48.042;7.584;2023-12-29T07:39:40;10.00;99.90
26505;DHT22;19493;48.042;7.584;2023-12-29T07:42:05;10.00;99.90
26505;DHT22;19493;48.042;7.584;2023-12-29T07:44:31;9.90;99.90
26505;DHT22;19493;48.042;7.584;2023-12-29T07:46:59;9.90;99.90
26505;DHT22;19493;48.042;7.584;2023-12-29T07:49:25;9.90;99.90
26505;DHT22;19493;48.042;7.584;2023-12-29T07:51:51;9.90;99.90
26505;DHT22;19493;48.042;7.584;2023-12-29T07:54:17;10.00;99.90
26505;DHT22;19493;48.042;7.584;2023-12-29T07:56:42;10.00;99.90
26505;DHT22;19493;48.042;7.584;2023-12-29T07:59:08;10.00;99.90
26505;DHT22;19493;48.042;7.584;2023-12-29T08:01:33;10.00;99.90
26505;DHT22;19493;48.042;7.584;2023-12-29T08:03:59;10.00;99.90
26505;DHT22;19493;48.042;7.584;2023-12-29T08:06:25;10.10;99.90
26505;DHT22;19493;48.042;7.584;2023-12-29T08:08:50;10.10;99.90
26505;DHT22;19493;48.042;7.584;2023-12-29T08:11:17;10.20;99.90
26505;DHT22;19493;48.042;7.584;2023-12-29T08:13:44;10.30;99.90
26505;DHT22;19493;48.042;7.584;2023-12-29T08:16:10;10.30;99.90
26505;DHT22;19493;48.042;7.584;2023-12-29T08:18:36;10.30;99.90
26505;DHT22;19493;48.042;7.584;2023-12-29T08:21:02;10.40;99.90
26505;DHT22;19493;48.042;7.584;2023-12-29T08:23:27;10.50;99.90
26505;DHT22;19493;48.042;7.584;2023-12-29T08:25:55;10.50;99.90
26505;DHT22;19493;48.042;7.584;2023-12-29T08:28:23;10.50;99.90
26505;DHT22;19493;48.042;7.584;2023-12-29T08:30:48;10.60;99.90
26505;DHT22;19493;48.042;7.584;2023-12-29T08:33:14;10.60;99.90
26505;DHT22;19493;48.042;7.584;2023-12-29T08:35:40;10.70;99.90
26505;DHT22;19493;48.042;7.584;2023-12-29T08:38:06;10.80;99.90
26505;DHT22;19493;48.042;7.584;2023-12-29T08:40:32;10.80;99.90
26505;DHT22;19493;48.042;7.584;2023-12-29T08:42:57;10.90;99.90
26505;DHT22;19493;48.042;7.584;2023-12-29T08:45:23;10.90;99.90
26505;DHT22;19493;48.042;7.584;2023-12-29T08:47:49;10.90;99.90
26505;DHT22;19493;48.042;7.584;2023-12-29T08:50:14;11.00;99.90
26505;DHT22;19493;48.042;7.584;2023-12-29T08:52:41;11.00;99.90
26505;DHT22;19493;48.042;7.584;2023-12-29T08:55:07;11.00;99.90
26505;DHT22;19493;48.042;7.584;2023-12-29T08:57:33;11.00;99.90
26505;DHT22;19493;48.042;7.584;2023-12-29T08:59:59;11.10;99.90
26505;DHT22;19493;48.042;7.584;2023-12-29T09:02:25;11.10;99.90
26505;DHT22;19493;48.042;7.584;2023-12-29T09:04:50;11.10;99.90
26505;DHT22;19493;48.042;7.584;2023-12-29T09:07:16;11.10;99.90
26505;DHT22;19493;48.042;7.584;2023-12-29T09:09:42;11.10;99.90
26505;DHT22;19493;48.042;7.584;2023-12-29T09:12:10;11.20;99.90
26505;DHT22;19493;48.042;7.584;2023-12-29T09:14:36;11.20;99.90
26505;DHT22;19493;48.042;7.584;2023-12-29T09:17:02;11.20;99.90
26505;DHT22;19493;48.042;7.584;2023-12-29T09:19:27;11.20;99.90
26505;DHT22;19493;48.042;7.584;2023-12-29T09:21:53;11.30;99.90
26505;DHT22;19493;48.042;7.584;2023-12-29T09:24:19;11.40;99.90
26505;DHT22;19493;48.042;7.584;2023-12-29T09:26:44;11.50;99.90
26505;DHT22;19493;48.042;7.584;2023-12-29T09:29:10;11.60;99.90
26505;DHT22;19493;48.042;7.584;2023-12-29T09:31:36;11.70;99.90
26505;DHT22;19493;48.042;7.584;2023-12-29T09:34:02;11.80;99.90
26505;DHT22;19493;48.042;7.584;2023-12-29T09:36:27;12.00;99.90
26505;DHT22;19493;48.042;7.584;2023-12-29T09:38:53;12.10;99.90
26505;DHT22;19493;48.042;7.584;2023-12-29T09:41:20;12.10;99.90
26505;DHT22;19493;48.042;7.584;2023-12-29T09:43:51;12.10;99.90
26505;DHT22;19493;48.042;7.584;2023-12-29T09:46:17;12.00;99.90
26505;DHT22;19493;48.042;7.584;2023-12-29T09:48:46;11.90;99.90
26505;DHT22;19493;48.042;7.584;2023-12-29T09:51:13;11.80;99.90
26505;DHT22;19493;48.042;7.584;2023-12-29T09:53:41;11.70;99.90
26505;DHT22;19493;48.042;7.584;2023-12-29T09:56:08;11.70;99.90
26505;DHT22;19493;48.042;7.584;2023-12-29T09:58:35;11.60;99.90
26505;DHT22;19493;48.042;7.584;2023-12-29T10:01:06;11.60;99.90
26505;DHT22;19493;48.042;7.584;2023-12-29T10:03:32;11.60;99.90
26505;DHT22;19493;48.042;7.584;2023-12-29T10:06:00;11.70;99.90
26505;DHT22;19493;48.042;7.584;2023-12-29T10:08:27;11.70;99.90
26505;DHT22;19493;48.042;7.584;2023-12-29T10:10:55;11.80;99.90
26505;DHT22;19493;48.042;7.584;2023-12-29T10:13:23;11.70;99.90
26505;DHT22;19493;48.042;7.584;2023-12-29T10:21:48;12.00;99.90
26505;DHT22;19493;48.042;7.584;2023-12-29T10:24:19;12.10;99.90
26505;DHT22;19493;48.042;7.584;2023-12-29T10:26:47;12.10;99.90
26505;DHT22;19493;48.042;7.584;2023-12-29T10:29:12;12.20;99.90
26505;DHT22;19493;48.042;7.584;2023-12-29T10:31:38;12.30;99.90
26505;DHT22;19493;48.042;7.584;2023-12-29T10:34:23;12.60;99.90
26505;DHT22;19493;48.042;7.584;2023-12-29T10:36:55;12.70;99.90
26505;DHT22;19493;48.042;7.584;2023-12-29T10:39:21;12.90;99.90
26505;DHT22;19493;48.042;7.584;2023-12-29T10:41:47;13.10;99.90
26505;DHT22;19493;48.042;7.584;2023-12-29T10:44:13;13.20;99.90
26505;DHT22;19493;48.042;7.584;2023-12-29T10:46:38;13.40;99.90
26505;DHT22;19493;48.042;7.584;2023-12-29T10:49:12;13.50;99.90
26505;DHT22;19493;48.042;7.584;2023-12-29T10:51:39;13.70;99.90
26505;DHT22;19493;48.042;7.584;2023-12-29T10:54:05;13.80;99.90
26505;DHT22;19493;48.042;7.584;2023-12-29T10:56:34;13.80;99.90
26505;DHT22;19493;48.042;7.584;2023-12-29T10:59:01;14.00;99.90
26505;DHT22;19493;48.042;7.584;2023-12-29T11:01:30;14.00;99.90
26505;DHT22;19493;48.042;7.584;2023-12-29T11:03:58;14.00;99.90
26505;DHT22;19493;48.042;7.584;2023-12-29T11:06:25;14.00;99.90
26505;DHT22;19493;48.042;7.584;2023-12-29T11:08:51;13.80;99.90
26505;DHT22;19493;48.042;7.584;2023-12-29T11:11:17;13.70;99.90
26505;DHT22;19493;48.042;7.584;2023-12-29T11:13:45;13.60;99.90
26505;DHT22;19493;48.042;7.584;2023-12-29T11:16:11;13.50;99.90
26505;DHT22;19493;48.042;7.584;2023-12-29T11:18:38;13.40;99.90
26505;DHT22;19493;48.042;7.584;2023-12-29T11:21:04;13.40;99.90
26505;DHT22;19493;48.042;7.584;2023-12-29T11:23:30;13.40;99.90
26505;DHT22;19493;48.042;7.584;2023-12-29T11:25:56;13.40;99.90
26505;DHT22;19493;48.042;7.584;2023-12-29T11:28:24;13.50;99.90
26505;DHT22;19493;48.042;7.584;2023-12-29T11:30:50;13.40;99.90
26505;DHT22;19493;48.042;7.584;2023-12-29T11:33:44;13.40;99.90
26505;DHT22;19493;48.042;7.584;2023-12-29T11:36:29;13.50;99.90
26505;DHT22;19493;48.042;7.584;2023-12-29T11:42:05;13.80;99.90
26505;DHT22;19493;48.042;7.584;2023-12-29T11:44:32;13.80;99.90
26505;DHT22;19493;48.042;7.584;2023-12-29T11:46:59;13.70;99.90
26505;DHT22;19493;48.042;7.584;2023-12-29T11:49:25;13.70;99.90
26505;DHT22;19493;48.042;7.584;2023-12-29T11:51:51;13.70;99.90
26505;DHT22;19493;48.042;7.584;2023-12-29T11:54:24;13.90;99.90
26505;DHT22;19493;48.042;7.584;2023-12-29T11:56:50;14.20;99.90
26505;DHT22;19493;48.042;7.584;2023-12-29T11:59:17;14.80;99.90
26505;DHT22;19493;48.042;7.584;2023-12-29T12:01:45;15.10;99.90
26505;DHT22;19493;48.042;7.584;2023-12-29T12:04:37;15.00;99.90
26505;DHT22;19493;48.042;7.584;2023-12-29T12:08:01;14.80;99.90
26505;DHT22;19493;48.042;7.584;2023-12-29T12:10:31;15.20;99.90
26505;DHT22;19493;48.042;7.584;2023-12-29T12:12:58;15.40;99.90
26505;DHT22;19493;48.042;7.584;2023-12-29T12:17:57;17.30;99.90
26505;DHT22;19493;48.042;7.584;2023-12-29T12:20:23;17.60;98.90
26505;DHT22;19493;48.042;7.584;2023-12-29T12:22:56;17.70;97.00
26505;DHT22;19493;48.042;7.584;2023-12-29T12:25:23;17.60;95.80
26505;DHT22;19493;48.042;7.584;2023-12-29T12:27:52;17.50;95.30
26505;DHT22;19493;48.042;7.584;2023-12-29T12:30:20;17.60;95.00
26505;DHT22;19493;48.042;7.584;2023-12-29T12:32:47;17.80;94.40
26505;DHT22;19493;48.042;7.584;2023-12-29T12:35:16;17.90;93.80
26505;DHT22;19493;48.042;7.584;2023-12-29T12:37:41;18.30;93.60
26505;DHT22;19493;48.042;7.584;2023-12-29T12:40:08;18.10;92.10
26505;DHT22;19493;48.042;7.584;2023-12-29T12:42:40;17.20;92.70
26505;DHT22;19493;48.042;7.584;2023-12-29T12:45:11;16.70;94.20
26505;DHT22;19493;48.042;7.584;2023-12-29T12:47:45;16.10;94.50
26505;DHT22;19493;48.042;7.584;2023-12-29T12:50:16;15.60;95.70
26505;DHT22;19493;48.042;7.584;2023-12-29T12:52:41;15.50;95.90
26505;DHT22;19493;48.042;7.584;2023-12-29T12:55:38;15.40;96.70
26505;DHT22;19493;48.042;7.584;2023-12-29T12:58:04;15.10;95.10
26505;DHT22;19493;48.042;7.584;2023-12-29T13:00:30;15.10;95.60
26505;DHT22;19493;48.042;7.584;2023-12-29T13:02:56;14.90;95.10
26505;DHT22;19493;48.042;7.584;2023-12-29T13:05:21;14.90;95.70
26505;DHT22;19493;48.042;7.584;2023-12-29T13:07:47;14.80;96.50
26505;DHT22;19493;48.042;7.584;2023-12-29T13:10:13;14.80;97.00
26505;DHT22;19493;48.042;7.584;2023-12-29T13:12:39;14.80;97.40
26505;DHT22;19493;48.042;7.584;2023-12-29T13:15:08;14.60;97.00
26505;DHT22;19493;48.042;7.584;2023-12-29T13:25:06;20.30;99.90
26505;DHT22;19493;48.042;7.584;2023-12-29T13:27:38;22.40;99.90
26505;DHT22;19493;48.042;7.584;2023-12-29T13:30:05;23.00;99.90
26505;DHT22;19493;48.042;7.584;2023-12-29T13:32:30;23.70;99.90
26505;DHT22;19493;48.042;7.584;2023-12-29T13:40:17;23.80;99.90
26505;DHT22;19493;48.042;7.584;2023-12-29T13:42:48;23.80;99.90
26505;DHT22;19493;48.042;7.584;2023-12-29T13:50:24;25.60;99.90
26505;DHT22;19493;48.042;7.584;2023-12-29T13:55:32;24.10;72.80
26505;DHT22;19493;48.042;7.584;2023-12-29T13:57:58;21.60;75.00
26505;DHT22;19493;48.042;7.584;2023-12-29T14:00:26;19.20;82.30
26505;DHT22;19493;48.042;7.584;2023-12-29T14:07:15;15.50;95.00
26505;DHT22;19493;48.042;7.584;2023-12-29T14:09:44;14.50;98.40
26505;DHT22;19493;48.042;7.584;2023-12-29T14:12:10;14.10;99.90
26505;DHT22;19493;48.042;7.584;2023-12-29T14:14:36;13.80;99.90
26505;DHT22;19493;48.042;7.584;2023-12-29T14:17:02;13.60;99.90
26505;DHT22;19493;48.042;7.584;2023-12-29T14:19:34;13.50;99.90
26505;DHT22;19493;48.042;7.584;2023-12-29T14:22:00;13.40;99.90
26505;DHT22;19493;48.042;7.584;2023-12-29T14:24:26;13.30;99.90
26505;DHT22;19493;48.042;7.584;2023-12-29T14:34:11;13.00;99.90
26505;DHT22;19493;48.042;7.584;2023-12-29T14:36:38;13.10;99.90
26505;DHT22;19493;48.042;7.584;2023-12-29T14:39:05;12.50;99.90
26505;DHT22;19493;48.042;7.584;2023-12-29T14:41:32;12.80;99.90
26505;DHT22;19493;48.042;7.584;2023-12-29T14:43:58;12.80;99.90
26505;DHT22;19493;48.042;7.584;2023-12-29T14:46:23;12.70;99.90
26505;DHT22;19493;48.042;7.584;2023-12-29T14:48:49;12.40;99.90
26505;DHT22;19493;48.042;7.584;2023-12-29T14:51:15;12.50;99.90
26505;DHT22;19493;48.042;7.584;2023-12-29T14:53:49;12.30;99.90
26505;DHT22;19493;48.042;7.584;2023-12-29T14:56:15;12.40;99.90
26505;DHT22;19493;48.042;7.584;2023-12-29T14:58:41;12.20;99.90
26505;DHT22;19493;48.042;7.584;2023-12-29T15:01:07;12.40;99.90
26505;DHT22;19493;48.042;7.584;2023-12-29T15:05:59;12.10;99.90
26505;DHT22;19493;48.042;7.584;2023-12-29T15:08:25;11.90;99.90
26505;DHT22;19493;48.042;7.584;2023-12-29T15:10:53;12.00;99.90
26505;DHT22;19493;48.042;7.584;2023-12-29T15:13:19;11.90;99.90
26505;DHT22;19493;48.042;7.584;2023-12-29T15:15:44;12.20;99.90
26505;DHT22;19493;48.042;7.584;2023-12-29T15:18:10;12.00;99.90
26505;DHT22;19493;48.042;7.584;2023-12-29T15:20:35;12.00;99.90
26505;DHT22;19493;48.042;7.584;2023-12-29T15:23:01;11.40;99.90
26505;DHT22;19493;48.042;7.584;2023-12-29T15:25:28;11.70;99.90
26505;DHT22;19493;48.042;7.584;2023-12-29T15:27:53;11.90;99.90
26505;DHT22;19493;48.042;7.584;2023-12-29T15:30:19;11.80;99.90
26505;DHT22;19493;48.042;7.584;2023-12-29T15:32:45;12.00;99.90
26505;DHT22;19493;48.042;7.584;2023-12-29T15:35:11;11.50;99.90
26505;DHT22;19493;48.042;7.584;2023-12-29T15:37:36;11.10;99.90
26505;DHT22;19493;48.042;7.584;2023-12-29T15:40:03;11.20;99.90
26505;DHT22;19493;48.042;7.584;2023-12-29T15:42:32;11.10;99.90
26505;DHT22;19493;48.042;7.584;2023-12-29T15:44:58;10.80;99.90
26505;DHT22;19493;48.042;7.584;2023-12-29T15:47:24;11.10;99.90
26505;DHT22;19493;48.042;7.584;2023-12-29T15:49:49;10.60;99.90
26505;DHT22;19493;48.042;7.584;2023-12-29T15:52:15;10.60;99.90
26505;DHT22;19493;48.042;7.584;2023-12-29T15:54:40;10.60;99.90
26505;DHT22;19493;48.042;7.584;2023-12-29T15:57:06;10.40;99.90
26505;DHT22;19493;48.042;7.584;2023-12-29T15:59:37;10.90;99.90
26505;DHT22;19493;48.042;7.584;2023-12-29T16:02:03;10.50;99.90
26505;DHT22;19493;48.042;7.584;2023-12-29T16:04:29;11.00;99.90
26505;DHT22;19493;48.042;7.584;2023-12-29T16:06:55;10.70;99.90
26505;DHT22;19493;48.042;7.584;2023-12-29T16:11:47;10.20;99.90
26505;DHT22;19493;48.042;7.584;2023-12-29T16:14:15;10.10;99.90
26505;DHT22;19493;48.042;7.584;2023-12-29T16:19:10;10.20;99.90
26505;DHT22;19493;48.042;7.584;2023-12-29T16:21:36;10.40;99.90
26505;DHT22;19493;48.042;7.584;2023-12-29T16:24:02;10.70;99.90
26505;DHT22;19493;48.042;7.584;2023-12-29T16:26:28;10.40;99.90
26505;DHT22;19493;48.042;7.584;2023-12-29T16:28:54;10.50;99.90